createdAt,value
2023-03-16T00:00:47.738Z,91.23
2023-03-16T00:03:20.532Z,91.56
2023-03-16T00:05:53.366Z,91.20
2023-03-16T00:08:20.524Z,89.68
2023-03-16T00:10:47.867Z,90.50
2023-03-16T00:13:16.293Z,90.93
2023-03-16T00:15:51.118Z,91.78
2023-03-16T00:18:18.079Z,91.60
2023-03-16T00:20:44.635Z,90.30
2023-03-16T00:23:12.031Z,90.96
2023-03-16T00:25:38.488Z,90.20
2023-03-16T00:28:05.025Z,91.24
2023-03-16T00:30:32.796Z,91.81
2023-03-16T00:32:59.611Z,90.78
2023-03-16T00:35:26.243Z,90.43
2023-03-16T00:37:57.315Z,90.27
2023-03-16T00:40:24.407Z,91.05
2023-03-16T00:42:50.945Z,90.62
2023-03-16T00:45:17.659Z,90.82
2023-03-16T00:47:44.262Z,90.62
2023-03-16T00:50:11.898Z,90.28
2023-03-16T00:52:38.489Z,89.34
2023-03-16T00:55:05.396Z,89.81
2023-03-16T00:57:31.946Z,89.34
2023-03-16T00:59:59.341Z,88.46
2023-03-16T01:02:25.806Z,88.32
2023-03-16T01:04:54.863Z,88.34
2023-03-16T01:07:22.150Z,87.44
2023-03-16T01:09:48.780Z,88.93
2023-03-16T01:12:17.537Z,90.30
2023-03-16T01:14:46.029Z,88.85
2023-03-16T01:17:14.259Z,88.37
2023-03-16T01:19:42.015Z,88.39
2023-03-16T01:22:10.066Z,88.60
2023-03-16T01:24:37.268Z,88.92
2023-03-16T01:27:04.611Z,88.64
2023-03-16T01:29:31.690Z,88.31
2023-03-16T01:31:58.190Z,89.34
2023-03-16T01:34:24.807Z,88.79
2023-03-16T01:36:51.722Z,88.44
2023-03-16T01:39:18.572Z,87.43
2023-03-16T01:41:46.796Z,87.83
2023-03-16T01:44:16.667Z,85.77
2023-03-16T01:46:44.382Z,86.29
2023-03-16T01:49:20.744Z,86.46
2023-03-16T01:51:53.113Z,85.75
2023-03-16T01:54:35.041Z,85.98
2023-03-16T01:57:10.031Z,86.68
2023-03-16T01:59:43.035Z,86.21
2023-03-16T02:02:13.662Z,85.99
2023-03-16T02:04:46.836Z,87.85
2023-03-16T02:07:17.139Z,86.96
2023-03-16T02:09:46.642Z,87.57
2023-03-16T02:12:18.548Z,86.80
2023-03-16T02:14:49.946Z,86.05
2023-03-16T02:17:23.540Z,86.09
2023-03-16T02:20:19.884Z,86.38
2023-03-16T02:22:48.935Z,86.32
2023-03-16T02:25:18.197Z,86.60
2023-03-16T02:28:19.938Z,86.02
2023-03-16T02:30:47.620Z,85.01
2023-03-16T02:33:17.103Z,84.52
2023-03-16T02:35:43.731Z,84.61
2023-03-16T02:38:10.464Z,85.33
2023-03-16T02:40:38.761Z,85.40
2023-03-16T02:43:13.475Z,85.40
2023-03-16T02:45:48.994Z,85.25
2023-03-16T02:48:24.764Z,86.38
2023-03-16T02:50:53.586Z,85.95
2023-03-16T02:53:21.198Z,86.76
2023-03-16T02:55:47.978Z,86.80
2023-03-16T02:58:14.889Z,86.50
2023-03-16T03:00:42.658Z,88.14
2023-03-16T03:03:09.620Z,88.08
2023-03-16T03:05:36.988Z,88.80
2023-03-16T03:08:04.357Z,88.93
2023-03-16T03:10:31.200Z,89.19
2023-03-16T03:12:58.082Z,90.38
2023-03-16T03:15:25.069Z,89.62
2023-03-16T03:17:51.837Z,89.91
2023-03-16T03:20:19.723Z,90.83
2023-03-16T03:22:48.782Z,92.36
2023-03-16T03:25:17.245Z,92.46
2023-03-16T03:27:45.015Z,93.08
2023-03-16T03:30:15.991Z,94.06
2023-03-16T03:32:44.206Z,94.24
2023-03-16T03:35:12.926Z,93.82
2023-03-16T03:37:41.103Z,93.72
2023-03-16T03:40:10.346Z,93.46
2023-03-16T03:42:36.941Z,94.70
2023-03-16T03:45:03.920Z,94.64
2023-03-16T03:47:30.856Z,95.14
2023-03-16T03:49:57.416Z,95.56
2023-03-16T03:52:23.924Z,94.17
2023-03-16T03:54:51.524Z,94.28
2023-03-16T03:57:19.401Z,95.19
2023-03-16T03:59:46.867Z,94.99
2023-03-16T04:02:14.110Z,94.48
2023-03-16T04:04:43.008Z,93.38
2023-03-16T04:07:09.964Z,94.12
2023-03-16T04:09:36.581Z,93.04
2023-03-16T04:12:04.967Z,93.74
2023-03-16T04:14:32.513Z,92.66
2023-03-16T04:16:59.463Z,93.30
2023-03-16T04:19:26.477Z,93.65
2023-03-16T04:21:53.150Z,93.46
2023-03-16T04:24:19.875Z,92.65
2023-03-16T04:26:46.482Z,93.17
2023-03-16T04:29:14.609Z,92.98
2023-03-16T04:31:42.496Z,93.11
2023-03-16T04:34:09.621Z,92.62
2023-03-16T04:36:36.152Z,91.51
2023-03-16T04:39:03.031Z,91.56
2023-03-16T04:41:29.826Z,90.85
2023-03-16T04:43:58.576Z,91.06
2023-03-16T04:46:27.469Z,90.25
2023-03-16T04:48:54.548Z,90.12
2023-03-16T04:51:21.609Z,90.55
2023-03-16T04:53:48.301Z,90.07
2023-03-16T04:56:19.809Z,89.08
2023-03-16T04:58:51.107Z,89.26
2023-03-16T05:01:18.452Z,90.27
2023-03-16T05:03:45.107Z,90.17
2023-03-16T05:06:12.954Z,89.39
2023-03-16T05:08:39.582Z,89.74
2023-03-16T05:11:06.298Z,89.19
2023-03-16T05:13:33.243Z,88.63
2023-03-16T05:16:00.351Z,88.50
2023-03-16T05:18:27.134Z,88.86
2023-03-16T05:20:56.065Z,88.34
2023-03-16T05:23:23.572Z,88.65
2023-03-16T05:25:50.530Z,88.74
2023-03-16T05:28:17.384Z,88.94
2023-03-16T05:30:45.350Z,88.63
2023-03-16T05:33:12.519Z,88.54
2023-03-16T05:35:39.277Z,88.25
2023-03-16T05:38:06.209Z,88.38
2023-03-16T05:40:33.255Z,88.27
2023-03-16T05:43:00.696Z,87.45
2023-03-16T05:45:28.089Z,89.10
2023-03-16T05:47:54.923Z,88.34
2023-03-16T05:50:22.405Z,89.13
2023-03-16T05:52:49.196Z,92.06
2023-03-16T05:55:17.577Z,92.68
2023-03-16T05:57:44.817Z,93.19
2023-03-16T06:00:15.716Z,93.77
2023-03-16T06:02:43.432Z,94.83
2023-03-16T06:05:11.226Z,96.85
2023-03-16T06:07:37.961Z,95.89
2023-03-16T06:10:05.564Z,96.15
2023-03-16T06:12:32.634Z,96.59
2023-03-16T06:14:59.208Z,94.51
2023-03-16T06:17:25.888Z,94.40
2023-03-16T06:19:52.498Z,94.66
2023-03-16T06:22:19.374Z,91.66
2023-03-16T06:24:45.923Z,91.98
2023-03-16T06:27:12.834Z,90.35
2023-03-16T06:29:39.462Z,91.14
2023-03-16T06:32:06.134Z,89.43
2023-03-16T06:34:32.764Z,88.79
2023-03-16T06:36:59.353Z,86.92
2023-03-16T06:39:25.930Z,85.63
2023-03-16T06:41:52.524Z,84.57
2023-03-16T06:44:19.327Z,81.91
2023-03-16T06:46:46.103Z,79.61
2023-03-16T06:49:12.746Z,75.98
2023-03-16T06:51:39.296Z,76.18
2023-03-16T06:54:05.853Z,77.18
2023-03-16T06:56:32.479Z,75.84
2023-03-16T06:58:59.218Z,77.95
2023-03-16T07:01:26.062Z,76.74
2023-03-16T07:03:52.666Z,76.89
2023-03-16T07:06:19.344Z,76.46
2023-03-16T07:08:47.357Z,78.81
2023-03-16T07:11:15.005Z,77.72
2023-03-16T07:13:42.161Z,78.61
2023-03-16T07:16:08.756Z,79.10
2023-03-16T07:18:38.029Z,79.20
2023-03-16T07:21:04.841Z,79.57
2023-03-16T07:23:32.398Z,81.35
2023-03-16T07:25:59.035Z,80.25
2023-03-16T07:28:25.635Z,79.15
2023-03-16T07:31:03.265Z,76.97
2023-03-16T07:33:33.164Z,78.74
2023-03-16T07:36:00.239Z,75.87
2023-03-16T07:38:26.823Z,74.47
2023-03-16T07:40:53.432Z,74.20
2023-03-16T07:43:20.113Z,75.30
2023-03-16T07:45:51.418Z,73.84
2023-03-16T07:48:19.172Z,74.57
2023-03-16T07:50:48.128Z,71.53
2023-03-16T07:53:15.718Z,66.87
2023-03-16T07:55:43.100Z,66.95
2023-03-16T07:58:10.858Z,67.38
2023-03-16T08:00:38.268Z,65.04
2023-03-16T08:03:04.999Z,61.31
2023-03-16T08:05:34.430Z,61.43
2023-03-16T08:08:01.836Z,57.65
2023-03-16T08:10:29.328Z,59.54
2023-03-16T08:12:56.112Z,56.34
2023-03-16T08:15:25.154Z,57.90
2023-03-16T08:17:52.696Z,57.38
2023-03-16T08:20:19.714Z,57.93
2023-03-16T08:22:46.675Z,57.76
2023-03-16T08:25:14.976Z,59.71
2023-03-16T08:27:43.035Z,57.39
2023-03-16T08:30:11.900Z,58.36
2023-03-16T08:32:42.293Z,59.51
2023-03-16T08:35:13.535Z,60.90
2023-03-16T08:37:41.559Z,58.00
2023-03-16T08:40:17.058Z,57.81
2023-03-16T08:42:44.922Z,59.14
2023-03-16T08:45:14.438Z,60.17
2023-03-16T08:47:41.574Z,59.99
2023-03-16T08:50:09.337Z,58.10
2023-03-16T08:52:36.786Z,58.81
2023-03-16T08:55:07.159Z,60.59
2023-03-16T08:57:34.416Z,59.10
2023-03-16T09:00:01.426Z,58.77
2023-03-16T09:02:28.172Z,59.59
2023-03-16T09:04:54.903Z,60.92
2023-03-16T09:07:21.988Z,61.31
2023-03-16T09:09:48.618Z,58.63
2023-03-16T09:12:15.277Z,58.39
2023-03-16T09:14:41.992Z,55.93
2023-03-16T09:17:08.580Z,54.65
2023-03-16T09:19:50.493Z,56.39
2023-03-16T09:22:19.903Z,56.75
2023-03-16T09:24:46.910Z,59.38
2023-03-16T09:27:13.582Z,58.52
2023-03-16T09:29:41.167Z,59.83
2023-03-16T09:32:08.700Z,58.25
2023-03-16T09:34:35.417Z,56.93
2023-03-16T09:37:02.635Z,54.97
2023-03-16T09:39:29.227Z,55.69
2023-03-16T09:42:02.667Z,56.12
2023-03-16T09:44:56.836Z,55.46
2023-03-16T09:47:29.133Z,59.01
2023-03-16T09:50:00.387Z,56.47
2023-03-16T09:52:49.211Z,57.17
2023-03-16T09:55:28.408Z,57.74
2023-03-16T09:57:56.161Z,56.88
2023-03-16T10:00:26.387Z,58.29
2023-03-16T10:03:11.793Z,59.59
2023-03-16T10:05:39.559Z,60.24
2023-03-16T10:08:09.102Z,59.76
2023-03-16T10:11:10.877Z,61.81
2023-03-16T10:13:37.489Z,59.49
2023-03-16T10:16:11.166Z,57.79
2023-03-16T10:18:52.378Z,59.25
2023-03-16T10:21:21.272Z,56.59
2023-03-16T10:23:49.901Z,55.95
2023-03-16T10:26:25.975Z,58.48
2023-03-16T10:28:53.071Z,53.62
2023-03-16T10:31:23.144Z,56.09
2023-03-16T10:33:56.538Z,54.91
2023-03-16T10:36:33.619Z,53.70
2023-03-16T10:39:02.184Z,54.59
2023-03-16T10:41:32.968Z,59.16
2023-03-16T10:44:08.569Z,54.51
2023-03-16T10:47:04.931Z,55.65
2023-03-16T10:49:41.906Z,59.52
2023-03-16T10:52:39.917Z,59.28
2023-03-16T10:55:16.072Z,52.32
2023-03-16T10:57:48.643Z,56.02
2023-03-16T11:00:22.251Z,53.28
2023-03-16T11:02:50.502Z,55.32
2023-03-16T11:05:33.445Z,55.45
2023-03-16T11:08:02.006Z,54.56
2023-03-16T11:10:38.081Z,55.04
2023-03-16T11:13:14.686Z,57.47
2023-03-16T11:16:20.022Z,53.25
2023-03-16T11:18:53.258Z,54.71
2023-03-16T11:21:38.785Z,53.33
2023-03-16T11:24:12.025Z,53.40
2023-03-16T11:26:40.837Z,53.23
2023-03-16T11:29:18.863Z,53.54
2023-03-16T11:31:56.253Z,54.81
2023-03-16T11:34:29.014Z,54.79
2023-03-16T11:37:05.487Z,56.08
2023-03-16T11:39:58.533Z,55.15
2023-03-16T11:42:37.470Z,54.34
2023-03-16T11:45:13.183Z,52.86
2023-03-16T11:48:07.636Z,51.50
2023-03-16T11:50:48.145Z,55.63
2023-03-16T11:53:33.223Z,54.51
2023-03-16T11:56:11.832Z,54.87
2023-03-16T11:59:02.209Z,52.35
2023-03-16T12:01:31.488Z,53.12
2023-03-16T12:04:16.782Z,51.54
2023-03-16T12:07:02.166Z,52.23
2023-03-16T12:09:40.573Z,51.54
2023-03-16T12:12:22.245Z,54.35
2023-03-16T12:15:07.185Z,53.47
2023-03-16T12:17:37.787Z,53.16
2023-03-16T12:20:26.981Z,52.56
2023-03-16T12:22:59.533Z,55.15
2023-03-16T12:25:33.180Z,53.07
2023-03-16T12:28:03.153Z,53.64
2023-03-16T12:30:38.588Z,53.25
2023-03-16T12:33:13.910Z,55.42
2023-03-16T12:35:56.744Z,56.10
2023-03-16T12:38:39.822Z,54.23
2023-03-16T12:41:31.474Z,56.06
2023-03-16T12:43:58.208Z,56.03
2023-03-16T12:46:33.707Z,54.28
2023-03-16T12:49:05.244Z,55.24
2023-03-16T12:51:37.537Z,56.87
2023-03-16T12:54:06.219Z,60.18
2023-03-16T12:56:35.992Z,61.30
2023-03-16T12:59:05.777Z,59.78
2023-03-16T13:01:56.905Z,62.46
2023-03-16T13:04:41.607Z,61.58
2023-03-16T13:07:21.672Z,60.27
2023-03-16T13:10:13.836Z,59.96
2023-03-16T13:12:41.968Z,59.69
2023-03-16T13:15:12.042Z,61.30
2023-03-16T13:17:39.274Z,60.88
2023-03-16T13:20:30.761Z,61.55
2023-03-16T13:23:36.581Z,60.75
2023-03-16T13:26:06.336Z,61.10
2023-03-16T13:28:36.728Z,60.84
2023-03-16T13:31:04.994Z,61.08
2023-03-16T13:33:36.772Z,60.60
2023-03-16T13:36:06.420Z,60.50
2023-03-16T13:38:33.310Z,61.81
2023-03-16T13:41:06.042Z,67.08
2023-03-16T13:43:35.905Z,63.11
2023-03-16T13:46:14.415Z,63.20
2023-03-16T13:48:41.835Z,62.73
2023-03-16T13:51:15.186Z,63.48
2023-03-16T13:53:43.372Z,64.84
2023-03-16T13:56:15.090Z,66.92
2023-03-16T13:58:45.650Z,65.97
2023-03-16T14:01:38.900Z,66.66
2023-03-16T14:04:13.922Z,69.81
2023-03-16T14:06:41.492Z,71.03
2023-03-16T14:09:21.723Z,73.85
2023-03-16T14:11:48.844Z,76.36
2023-03-16T14:14:23.705Z,74.38
2023-03-16T14:16:51.337Z,76.93
2023-03-16T14:19:25.919Z,78.25
2023-03-16T14:21:52.594Z,77.63
2023-03-16T14:24:35.536Z,77.31
2023-03-16T14:27:17.115Z,80.47
2023-03-16T14:29:44.471Z,77.38
2023-03-16T14:32:20.520Z,79.35
2023-03-16T14:34:50.662Z,79.53
2023-03-16T14:37:19.347Z,78.10
2023-03-16T14:39:58.120Z,78.89
2023-03-16T14:42:29.884Z,81.50
2023-03-16T14:44:59.941Z,80.06
2023-03-16T14:47:31.170Z,81.16
2023-03-16T14:50:10.187Z,78.84
2023-03-16T14:52:37.211Z,80.15
2023-03-16T14:55:12.999Z,78.08
2023-03-16T14:57:41.793Z,76.94
2023-03-16T15:00:12.170Z,76.92
2023-03-16T15:02:42.132Z,75.40
2023-03-16T15:05:15.734Z,77.22
2023-03-16T15:07:45.414Z,75.55
2023-03-16T15:10:15.496Z,76.12
2023-03-16T15:12:50.506Z,76.94
2023-03-16T15:15:19.835Z,77.17
2023-03-16T15:17:47.636Z,77.93
2023-03-16T15:20:16.899Z,79.29
2023-03-16T15:22:45.053Z,78.67
2023-03-16T15:25:37.338Z,78.45
2023-03-16T15:28:11.600Z,77.64
2023-03-16T15:30:39.105Z,78.32
2023-03-16T15:33:06.143Z,77.47
2023-03-16T15:35:32.965Z,77.43
2023-03-16T15:38:02.998Z,78.12
2023-03-16T15:40:31.509Z,76.71
2023-03-16T15:42:58.326Z,78.91
2023-03-16T15:45:25.450Z,78.75
2023-03-16T15:47:53.678Z,79.18
2023-03-16T15:50:22.255Z,80.51
2023-03-16T15:52:58.139Z,79.56
2023-03-16T15:55:33.247Z,79.30
2023-03-16T15:58:02.472Z,80.32
2023-03-16T16:00:37.915Z,80.64
2023-03-16T16:03:06.514Z,78.83
2023-03-16T16:05:33.921Z,79.23
2023-03-16T16:08:00.629Z,80.51
2023-03-16T16:10:28.697Z,80.19
2023-03-16T16:12:56.984Z,81.61
2023-03-16T16:15:23.652Z,81.48
2023-03-16T16:18:08.563Z,83.01
2023-03-16T16:20:37.042Z,84.29
2023-03-16T16:23:03.616Z,85.40
2023-03-16T16:25:40.361Z,86.66
2023-03-16T16:28:19.073Z,87.01
2023-03-16T16:30:46.276Z,87.29
2023-03-16T16:33:39.807Z,87.27
2023-03-16T16:36:13.555Z,87.22
2023-03-16T16:38:40.174Z,88.38
2023-03-16T16:41:09.272Z,87.17
2023-03-16T16:43:41.821Z,86.92
2023-03-16T16:46:21.145Z,86.62
2023-03-16T16:48:54.124Z,85.75
2023-03-16T16:51:24.703Z,85.26
2023-03-16T16:53:56.918Z,86.11
2023-03-16T16:56:32.582Z,87.04
2023-03-16T16:59:14.047Z,88.23
2023-03-16T17:01:40.787Z,87.46
2023-03-16T17:04:17.466Z,88.39
2023-03-16T17:06:45.807Z,89.39
2023-03-16T17:09:14.324Z,89.34
2023-03-16T17:11:42.480Z,89.74
2023-03-16T17:14:14.834Z,91.37
2023-03-16T17:16:41.769Z,92.42
2023-03-16T17:19:21.406Z,93.80
2023-03-16T17:21:48.765Z,93.66
2023-03-16T17:24:15.604Z,93.25
2023-03-16T17:26:48.865Z,93.51
2023-03-16T17:29:23.064Z,93.22
2023-03-16T17:31:50.615Z,93.02
2023-03-16T17:34:23.269Z,92.47
2023-03-16T17:36:51.275Z,92.17
2023-03-16T17:39:29.522Z,92.54
2023-03-16T17:42:06.217Z,91.96
2023-03-16T17:44:36.095Z,91.40
2023-03-16T17:47:02.980Z,91.19
2023-03-16T17:49:30.844Z,91.30
2023-03-16T17:51:57.864Z,91.86
2023-03-16T17:54:24.644Z,90.86
2023-03-16T17:56:54.191Z,89.94
2023-03-16T17:59:22.195Z,90.53
2023-03-16T18:01:49.414Z,90.43
2023-03-16T18:04:21.237Z,90.25
2023-03-16T18:06:49.246Z,89.66
2023-03-16T18:09:17.958Z,89.34
2023-03-16T18:11:47.680Z,89.24
2023-03-16T18:14:35.587Z,89.66
2023-03-16T18:17:07.816Z,90.08
2023-03-16T18:19:34.448Z,89.43
2023-03-16T18:22:01.046Z,89.79
2023-03-16T18:24:28.281Z,91.21
2023-03-16T18:26:55.438Z,90.25
2023-03-16T18:29:22.469Z,90.77
2023-03-16T18:31:56.997Z,90.93
2023-03-16T18:34:26.231Z,91.06
2023-03-16T18:36:55.836Z,91.38
2023-03-16T18:39:22.628Z,93.51
2023-03-16T18:41:49.913Z,93.19
2023-03-16T18:44:18.532Z,94.49
2023-03-16T18:46:46.315Z,94.14
2023-03-16T18:49:12.841Z,96.27
2023-03-16T18:51:39.464Z,95.78
2023-03-16T18:54:25.762Z,95.52
2023-03-16T18:56:53.913Z,94.66
2023-03-16T18:59:21.056Z,93.92
2023-03-16T19:01:48.471Z,96.13
2023-03-16T19:04:45.140Z,93.88
2023-03-16T19:07:24.298Z,92.98
2023-03-16T19:09:51.582Z,94.43
2023-03-16T19:12:20.680Z,93.82
2023-03-16T19:14:47.748Z,94.42
2023-03-16T19:17:14.370Z,94.13
2023-03-16T19:19:41.057Z,92.85
2023-03-16T19:22:15.792Z,93.49
2023-03-16T19:24:54.089Z,94.13
2023-03-16T19:27:33.025Z,97.04
2023-03-16T19:29:59.675Z,94.63
2023-03-16T19:32:26.395Z,95.51
2023-03-16T19:34:54.070Z,95.53
2023-03-16T19:37:23.855Z,95.65
2023-03-16T19:39:50.555Z,95.54
2023-03-16T19:42:33.700Z,95.76
2023-03-16T19:45:00.986Z,96.32
2023-03-16T19:47:30.990Z,96.17
2023-03-16T19:49:59.023Z,97.75
2023-03-16T19:52:28.195Z,97.61
2023-03-16T19:54:57.471Z,96.48
2023-03-16T19:57:24.253Z,96.17
2023-03-16T19:59:55.628Z,95.36
2023-03-16T20:02:43.218Z,95.73
2023-03-16T20:05:17.616Z,94.14
2023-03-16T20:07:44.155Z,94.46
2023-03-16T20:10:17.088Z,95.77
2023-03-16T20:12:44.094Z,94.92
2023-03-16T20:15:21.177Z,93.90
2023-03-16T20:17:48.467Z,92.92
2023-03-16T20:20:25.361Z,92.98
2023-03-16T20:22:53.776Z,93.67
2023-03-16T20:25:21.216Z,94.47
2023-03-16T20:27:54.016Z,94.45
2023-03-16T20:30:20.829Z,93.83
2023-03-16T20:32:47.848Z,94.94
2023-03-16T20:35:19.357Z,94.77
2023-03-16T20:37:46.383Z,94.39
2023-03-16T20:40:13.580Z,94.82
2023-03-16T20:42:40.636Z,96.30
2023-03-16T20:45:19.525Z,96.22
2023-03-16T20:47:46.273Z,97.39
2023-03-16T20:50:22.791Z,97.96
2023-03-16T20:52:50.560Z,98.35
2023-03-16T20:55:19.797Z,98.60
2023-03-16T20:57:47.766Z,99.27
2023-03-16T21:00:23.200Z,99.82
2023-03-16T21:02:49.852Z,100.00
2023-03-16T21:05:16.698Z,97.69
2023-03-16T21:07:43.264Z,99.21
2023-03-16T21:10:15.154Z,100.00
2023-03-16T21:12:46.011Z,99.09
2023-03-16T21:15:33.405Z,100.00
2023-03-16T21:18:06.562Z,100.00
2023-03-16T21:20:35.662Z,100.00
2023-03-16T21:23:02.618Z,100.00
2023-03-16T21:25:36.885Z,100.00
2023-03-16T21:28:05.346Z,100.00
2023-03-16T21:30:42.905Z,100.00
2023-03-16T21:33:35.754Z,100.00
2023-03-16T21:36:04.330Z,100.00
2023-03-16T21:38:32.321Z,100.00
2023-03-16T21:40:59.806Z,100.00
2023-03-16T21:43:27.449Z,100.00
2023-03-16T21:45:55.214Z,100.00
2023-03-16T21:48:24.879Z,100.00
2023-03-16T21:50:53.092Z,100.00
2023-03-16T21:53:31.819Z,100.00
2023-03-16T21:55:58.820Z,100.00
2023-03-16T21:58:26.090Z,100.00
2023-03-16T22:00:54.592Z,100.00
2023-03-16T22:03:24.055Z,100.00
2023-03-16T22:05:51.212Z,100.00
2023-03-16T22:08:24.180Z,100.00
2023-03-16T22:10:51.470Z,100.00
2023-03-16T22:13:19.283Z,100.00
2023-03-16T22:15:48.415Z,100.00
2023-03-16T22:18:34.688Z,100.00
2023-03-16T22:21:11.105Z,100.00
2023-03-16T22:23:37.751Z,100.00
2023-03-16T22:26:06.257Z,100.00
2023-03-16T22:28:34.215Z,100.00
2023-03-16T22:31:04.370Z,100.00
2023-03-16T22:33:35.016Z,100.00
2023-03-16T22:36:08.341Z,100.00
2023-03-16T22:38:36.425Z,100.00
2023-03-16T22:41:03.372Z,100.00
2023-03-16T22:43:34.686Z,100.00
2023-03-16T22:46:01.568Z,100.00
2023-03-16T22:48:31.213Z,100.00
2023-03-16T22:51:02.475Z,100.00
2023-03-16T22:53:41.512Z,100.00
2023-03-16T22:56:10.594Z,100.00
2023-03-16T22:58:49.903Z,100.00
2023-03-16T23:01:23.530Z,100.00
2023-03-16T23:03:52.952Z,100.00
2023-03-16T23:06:22.846Z,100.00
2023-03-16T23:08:49.970Z,100.00
2023-03-16T23:11:21.661Z,100.00
2023-03-16T23:13:48.914Z,100.00
2023-03-16T23:16:25.092Z,100.00
2023-03-16T23:18:52.477Z,100.00
2023-03-16T23:21:20.695Z,100.00
2023-03-16T23:23:57.153Z,100.00
2023-03-16T23:26:29.482Z,100.00
2023-03-16T23:28:57.045Z,100.00
2023-03-16T23:31:26.195Z,100.00
2023-03-16T23:33:52.995Z,100.00
2023-03-16T23:36:21.825Z,100.00
2023-03-16T23:38:49.479Z,100.00
2023-03-16T23:41:20.474Z,100.00
2023-03-16T23:43:48.478Z,100.00
2023-03-16T23:46:18.715Z,100.00
2023-03-16T23:48:47.402Z,100.00
2023-03-16T23:51:26.499Z,100.00
2023-03-16T23:53:53.375Z,100.00
2023-03-16T23:56:20.448Z,100.00
2023-03-16T23:58:47.018Z,100.00
